createdAt,value
2022-09-12T00:00:23.633Z,101699.63
2022-09-12T00:05:48.798Z,101706.63
2022-09-12T00:11:13.171Z,101694.47
2022-09-12T00:16:37.246Z,101702.59
2022-09-12T00:22:02.239Z,101693.75
2022-09-12T00:27:25.335Z,101692.06
2022-09-12T00:32:49.290Z,101692.94
2022-09-12T00:38:14.616Z,101683.78
2022-09-12T00:43:40.673Z,101678.69
2022-09-12T00:49:07.161Z,101670.88
2022-09-12T00:54:38.972Z,101670.63
2022-09-12T01:00:09.750Z,101651.72
2022-09-12T01:05:35.257Z,101666.50
2022-09-12T01:10:59.775Z,101645.38
2022-09-12T01:16:22.911Z,101648.88
2022-09-12T01:21:51.052Z,101641.38
2022-09-12T01:27:34.920Z,101643.97
2022-09-12T01:33:31.431Z,101643.97
2022-09-12T01:39:00.375Z,101641.44
2022-09-12T01:44:29.958Z,101646.09
2022-09-12T01:49:57.700Z,101625.38
2022-09-12T01:55:26.125Z,101627.75
2022-09-12T02:00:54.336Z,101623.38
2022-09-12T02:06:20.894Z,101573.31
2022-09-12T02:11:45.607Z,101612.13
2022-09-12T02:17:11.845Z,101583.00
2022-09-12T02:22:35.210Z,101614.31
2022-09-12T02:28:03.284Z,101604.69
2022-09-12T02:33:28.678Z,101603.13
2022-09-12T02:38:51.880Z,101604.28
2022-09-12T02:44:16.305Z,101599.97
2022-09-12T02:49:39.821Z,101566.47
2022-09-12T02:55:03.252Z,101594.81
2022-09-12T03:00:28.293Z,101586.78
2022-09-12T03:05:56.917Z,101565.91
2022-09-12T03:11:27.330Z,101574.28
2022-09-12T03:16:57.341Z,101577.84
2022-09-12T03:22:23.421Z,101566.69
2022-09-12T03:27:50.717Z,101556.72
2022-09-12T03:33:16.245Z,101557.47
2022-09-12T03:38:39.551Z,101555.47
2022-09-12T03:44:02.846Z,101531.41
2022-09-12T03:49:27.254Z,101553.19
2022-09-12T03:54:51.485Z,101557.59
2022-09-12T04:00:19.616Z,101551.63
2022-09-12T04:06:06.959Z,101554.50
2022-09-12T04:11:32.223Z,101566.66
2022-09-12T04:16:55.374Z,101561.41
2022-09-12T04:22:21.236Z,101534.94
2022-09-12T04:27:47.057Z,101564.88
2022-09-12T04:33:10.174Z,101564.06
2022-09-12T04:38:34.668Z,101551.00
2022-09-12T04:43:59.313Z,101547.22
2022-09-12T04:49:22.342Z,101534.78
2022-09-12T04:54:46.858Z,101545.72
2022-09-12T05:00:14.187Z,101545.84
2022-09-12T05:05:37.249Z,101543.09
2022-09-12T05:11:05.728Z,101550.41
2022-09-12T05:16:29.818Z,101548.69
2022-09-12T05:21:52.976Z,101544.00
2022-09-12T05:27:17.430Z,101532.59
2022-09-12T05:32:40.920Z,101523.84
2022-09-12T05:38:03.948Z,101524.63
2022-09-12T05:43:28.350Z,101522.19
2022-09-12T05:48:55.635Z,101539.69
2022-09-12T05:54:20.701Z,101536.50
2022-09-12T05:59:47.619Z,101542.75
2022-09-12T06:05:10.703Z,101529.69
2022-09-12T06:10:35.277Z,101521.78
2022-09-12T06:16:05.349Z,101518.53
2022-09-12T06:21:30.738Z,101516.56
2022-09-12T06:26:54.142Z,101520.13
2022-09-12T06:32:18.662Z,101524.09
2022-09-12T06:37:41.791Z,101525.59
2022-09-12T06:43:05.602Z,101525.16
2022-09-12T06:48:30.656Z,101525.63
2022-09-12T06:53:55.942Z,101530.38
2022-09-12T06:59:19.985Z,101516.94
2022-09-12T07:04:49.748Z,101516.28
2022-09-12T07:10:12.905Z,101506.63
2022-09-12T07:15:37.080Z,101501.19
2022-09-12T07:21:02.629Z,101494.94
2022-09-12T07:26:27.963Z,101493.16
2022-09-12T07:31:51.077Z,101493.13
2022-09-12T07:37:15.510Z,101493.88
2022-09-12T07:42:38.508Z,101487.88
2022-09-12T07:48:01.611Z,101492.81
2022-09-12T07:53:26.045Z,101488.50
2022-09-12T07:58:49.539Z,101466.84
2022-09-12T08:04:12.613Z,101484.41
2022-09-12T08:09:37.319Z,101489.78
2022-09-12T08:15:00.620Z,101487.69
2022-09-12T08:20:28.111Z,101488.31
2022-09-12T08:25:52.856Z,101499.41
2022-09-12T08:31:17.604Z,101497.31
2022-09-12T08:36:40.965Z,101499.44
2022-09-12T08:47:40.137Z,101496.72
2022-09-12T08:53:04.667Z,101492.91
2022-09-12T08:58:30.198Z,101487.59
2022-09-12T09:04:09.841Z,101486.63
2022-09-12T09:09:42.985Z,101474.00
2022-09-12T09:15:25.163Z,101475.22
2022-09-12T09:20:50.720Z,101465.75
2022-09-12T09:26:17.775Z,101462.50
2022-09-12T09:31:42.855Z,101464.22
2022-09-12T09:37:09.803Z,101442.56
2022-09-12T09:42:39.764Z,101436.09
2022-09-12T09:48:14.360Z,101425.84
2022-09-12T09:53:47.729Z,101422.03
2022-09-12T09:59:12.790Z,101424.00
2022-09-12T10:04:41.498Z,101419.94
2022-09-12T10:10:07.727Z,101404.47
2022-09-12T10:15:30.822Z,101393.06
2022-09-12T10:20:55.588Z,101392.34
2022-09-12T10:26:20.790Z,101384.75
2022-09-12T10:31:49.710Z,101390.50
2022-09-12T10:37:20.613Z,101376.66
2022-09-12T10:43:17.286Z,101381.88
2022-09-12T10:48:40.382Z,101377.94
2022-09-12T10:54:08.802Z,101369.94
2022-09-12T10:59:39.028Z,101369.41
2022-09-12T11:05:07.983Z,101371.22
2022-09-12T11:10:43.750Z,101365.44
2022-09-12T11:16:18.694Z,101367.59
2022-09-12T11:21:53.745Z,101366.88
2022-09-12T11:27:31.312Z,101364.38
2022-09-12T11:33:05.837Z,101361.28
2022-09-12T11:38:43.150Z,101355.97
2022-09-12T11:44:14.884Z,101356.59
2022-09-12T11:49:41.555Z,101350.84
2022-09-12T11:55:07.948Z,101357.31
2022-09-12T12:00:33.899Z,101358.00
2022-09-12T12:06:00.319Z,101354.03
2022-09-12T12:11:31.304Z,101351.38
2022-09-12T12:16:55.766Z,101345.06
2022-09-12T12:22:20.559Z,101332.25
2022-09-12T12:27:49.458Z,101319.50
2022-09-12T12:33:46.041Z,101314.09
2022-09-12T12:39:55.588Z,101305.31
2022-09-12T12:46:04.779Z,101298.41
2022-09-12T12:51:33.091Z,101280.09
2022-09-12T12:57:04.486Z,101273.38
2022-09-12T13:02:31.841Z,101278.19
2022-09-12T13:07:59.624Z,101280.41
2022-09-12T13:13:25.999Z,101282.47
2022-09-12T13:18:50.420Z,101279.84
2022-09-12T13:24:18.516Z,101281.53
2022-09-12T13:29:42.369Z,101280.91
2022-09-12T13:35:11.968Z,101279.16
2022-09-12T13:40:42.561Z,101272.00
2022-09-12T13:46:08.109Z,101247.91
2022-09-12T13:51:32.428Z,101242.22
2022-09-12T13:56:56.905Z,101247.34
2022-09-12T14:02:21.477Z,101211.16
2022-09-12T14:07:55.258Z,101218.69
2022-09-12T14:13:21.587Z,101216.75
2022-09-12T14:18:45.684Z,101218.28
2022-09-12T14:24:10.769Z,101217.31
2022-09-12T14:29:35.219Z,101207.38
2022-09-12T14:35:14.851Z,101194.91
2022-09-12T14:40:42.425Z,101197.19
2022-09-12T14:46:08.990Z,101196.44
2022-09-12T14:51:34.833Z,101190.03
2022-09-12T14:56:59.711Z,101186.41
2022-09-12T15:02:27.171Z,101119.91
2022-09-12T15:07:55.253Z,101181.56
2022-09-12T15:13:20.738Z,101179.22
2022-09-12T15:18:52.967Z,101169.81
2022-09-12T15:24:16.170Z,101177.00
2022-09-12T15:29:39.470Z,101178.00
2022-09-12T15:35:04.023Z,101171.44
2022-09-12T15:40:27.367Z,101159.91
2022-09-12T15:45:54.945Z,101166.81
2022-09-12T15:51:21.027Z,101107.22
2022-09-12T15:56:44.017Z,101161.56
2022-09-12T16:02:07.295Z,101154.53
2022-09-12T16:07:31.980Z,101151.66
2022-09-12T16:12:55.164Z,101153.41
2022-09-12T16:18:18.657Z,101148.38
2022-09-12T16:23:48.073Z,101054.13
2022-09-12T16:29:12.764Z,101141.22
2022-09-12T16:34:35.856Z,101070.94
2022-09-12T16:40:00.378Z,101122.97
2022-09-12T16:45:23.488Z,101125.50
2022-09-12T16:50:46.494Z,101116.31
2022-09-12T16:56:11.023Z,101108.66
2022-09-12T17:01:34.921Z,101126.91
2022-09-12T17:06:59.445Z,101125.50
2022-09-12T17:12:24.557Z,101119.41
2022-09-12T17:17:52.175Z,101116.13
2022-09-12T17:23:15.226Z,101111.69
2022-09-12T17:28:40.789Z,101051.00
2022-09-12T17:34:04.260Z,101079.56
2022-09-12T17:39:27.691Z,101099.78
2022-09-12T17:44:54.957Z,101102.13
2022-09-12T17:50:31.426Z,101100.41
2022-09-12T17:55:55.454Z,101084.25
2022-09-12T18:01:37.689Z,101092.13
2022-09-12T18:07:00.778Z,101098.66
2022-09-12T18:12:24.087Z,101089.59
2022-09-12T18:17:48.485Z,101099.28
2022-09-12T18:23:11.565Z,101093.56
2022-09-12T18:28:35.553Z,101084.28
2022-09-12T18:34:01.038Z,101093.00
2022-09-12T18:39:27.662Z,101096.00
2022-09-12T18:44:51.311Z,101083.50
2022-09-12T18:50:15.878Z,101096.81
2022-09-12T18:55:38.902Z,101089.13
2022-09-12T19:01:09.667Z,101087.59
2022-09-12T19:06:35.863Z,101065.44
2022-09-12T19:11:58.942Z,101079.38
2022-09-12T19:17:21.980Z,101086.19
2022-09-12T19:22:46.488Z,101086.72
2022-09-12T19:28:09.600Z,101084.91
2022-09-12T19:33:32.719Z,101085.75
2022-09-12T19:38:57.373Z,101078.41
2022-09-12T19:44:20.512Z,101069.34
2022-09-12T19:49:43.638Z,101073.16
2022-09-12T19:55:09.818Z,101070.13
2022-09-12T20:00:33.687Z,101055.53
2022-09-12T20:06:03.023Z,101048.56
2022-09-12T20:11:27.414Z,101054.50
2022-09-12T20:16:50.539Z,101040.25
2022-09-12T20:22:13.589Z,101056.53
2022-09-12T20:27:38.061Z,101060.72
2022-09-12T20:33:01.126Z,101044.59
2022-09-12T20:38:24.284Z,101041.53
2022-09-12T20:43:52.320Z,101045.78
2022-09-12T20:49:15.359Z,101049.97
2022-09-12T20:54:38.435Z,101049.13
2022-09-12T21:00:03.517Z,101043.81
2022-09-12T21:05:26.596Z,101033.25
2022-09-12T21:10:49.668Z,101028.25
2022-09-12T21:16:15.690Z,101027.06
2022-09-12T21:21:38.816Z,101021.44
2022-09-12T21:27:04.345Z,101024.84
2022-09-12T21:32:34.759Z,101033.47
2022-09-12T21:37:58.278Z,101038.78
2022-09-12T21:43:21.330Z,101047.81
2022-09-12T21:48:45.759Z,101044.81
2022-09-12T21:54:09.043Z,101045.94
2022-09-12T21:59:32.085Z,101056.47
2022-09-12T22:04:56.680Z,101058.38
2022-09-12T22:10:19.756Z,101067.41
2022-09-12T22:15:44.486Z,101038.22
2022-09-12T22:21:12.293Z,101038.09
2022-09-12T22:26:41.928Z,101022.56
2022-09-12T22:32:05.240Z,101022.38
2022-09-12T22:37:29.674Z,101020.88
2022-09-12T22:42:55.216Z,101007.06
2022-09-12T22:48:18.382Z,101006.69
2022-09-12T22:53:43.396Z,101006.19
2022-09-12T22:59:07.349Z,101029.88
2022-09-12T23:04:30.879Z,101046.69
2022-09-12T23:09:55.355Z,101029.91
2022-09-12T23:15:18.385Z,101012.94
2022-09-12T23:20:41.423Z,101012.28
2022-09-12T23:26:08.045Z,101034.25
2022-09-12T23:31:33.002Z,101020.34
2022-09-12T23:36:56.292Z,101022.53
2022-09-12T23:42:20.812Z,101031.88
2022-09-12T23:47:43.895Z,101022.31
2022-09-12T23:53:06.964Z,101021.47
2022-09-12T23:58:31.428Z,101004.41
